Time;durP1;ratioP1;P1;durP2;ratioP2;P2;SDS_P1;SDS_P2;PMS_P1;PMS_P2;Temp;Humidity;BMP_temperature;BMP_pressure;BME280_temperature;BME280_humidity;BME280_pressure;Samples;Min_cycle;Max_cycle;Signal;HPM_P1;HPM_P2
2023/01/27 00:01:38;;;;;;;2.60;1.02;;;6.20;99.90;;;;;;5005525;28;20038;-73
2023/01/27 00:04:04;;;;;;;5.90;0.93;;;6.20;99.90;;;;;;5006768;28;20048;-73
2023/01/27 00:06:30;;;;;;;9.75;1.40;;;6.20;99.90;;;;;;5005382;28;20570;-72
2023/01/27 00:08:55;;;;;;;5.85;1.17;;;6.20;99.90;;;;;;5005746;28;20052;-72
2023/01/27 00:14:05;;;;;;;5.03;0.80;;;6.20;99.90;;;;;;5001140;28;20056;-72
2023/01/27 00:16:31;;;;;;;14.27;2.97;;;6.10;99.90;;;;;;5006502;28;20487;-72
2023/01/27 00:18:56;;;;;;;5.53;2.10;;;6.20;99.90;;;;;;5006925;28;20038;-75
2023/01/27 00:26:55;;;;;;;5.75;0.73;;;6.10;99.90;;;;;;5004043;28;20556;-73
2023/01/27 00:29:21;;;;;;;5.28;1.38;;;6.10;99.90;;;;;;5008228;28;20037;-74
2023/01/27 00:34:31;;;;;;;12.90;2.25;;;6.00;99.90;;;;;;5008011;28;20122;-72
2023/01/27 00:36:56;;;;;;;5.30;0.95;;;6.00;99.90;;;;;;5010632;28;20121;-73
2023/01/27 00:39:22;;;;;;;4.50;0.85;;;6.00;99.90;;;;;;5010404;28;20157;-73
2023/01/27 00:41:47;;;;;;;5.55;0.88;;;6.10;99.90;;;;;;5010936;28;20069;-72
2023/01/27 00:44:13;;;;;;;4.78;0.60;;;6.10;99.90;;;;;;5008238;28;20500;-72
2023/01/27 00:46:40;;;;;;;4.90;0.98;;;6.10;99.90;;;;;;5008776;28;20603;-73
2023/01/27 00:49:06;;;;;;;6.47;0.95;;;6.00;99.90;;;;;;5009751;28;20030;-74
2023/01/27 00:51:31;;;;;;;5.70;0.98;;;6.10;99.90;;;;;;5009702;28;20053;-73
2023/01/27 00:53:58;;;;;;;8.60;1.17;;;6.00;99.90;;;;;;5010298;28;20073;-73
2023/01/27 00:56:24;;;;;;;11.60;1.10;;;6.00;99.90;;;;;;5011417;28;20057;-76
2023/01/27 00:58:49;;;;;;;11.38;1.33;;;5.90;99.90;;;;;;5008157;28;20046;-73
2023/01/27 01:01:16;;;;;;;11.82;1.15;;;5.90;99.90;;;;;;5009830;28;20057;-74
2023/01/27 01:03:42;;;;;;;5.88;1.95;;;5.90;99.90;;;;;;5009883;28;20038;-73
2023/01/27 01:06:13;;;;;;;6.45;1.77;;;6.00;99.90;;;;;;5009093;28;20064;-74
2023/01/27 01:08:39;;;;;;;9.32;1.58;;;5.90;99.90;;;;;;5008703;28;20038;-75
2023/01/27 01:11:07;;;;;;;5.45;0.85;;;6.00;99.90;;;;;;5009127;28;20548;-75
2023/01/27 01:13:33;;;;;;;10.77;2.03;;;6.00;99.90;;;;;;5008980;28;20042;-74
2023/01/27 01:16:08;;;;;;;5.93;1.42;;;6.00;99.90;;;;;;5010288;28;20036;-74
2023/01/27 01:18:34;;;;;;;7.25;1.67;;;6.00;99.90;;;;;;5009156;28;20029;-74
2023/01/27 01:21:00;;;;;;;5.40;0.88;;;6.00;99.90;;;;;;5008640;28;20060;-73
2023/01/27 01:23:26;;;;;;;12.07;1.33;;;6.00;99.90;;;;;;5009615;28;20568;-73
2023/01/27 01:25:56;;;;;;;4.55;1.13;;;5.90;99.90;;;;;;5011312;28;20029;-72
2023/01/27 01:28:22;;;;;;;4.45;0.90;;;6.00;99.90;;;;;;5009351;28;20125;-72
2023/01/27 01:30:48;;;;;;;4.28;1.52;;;6.00;99.90;;;;;;5009574;28;20042;-74
2023/01/27 01:33:14;;;;;;;7.70;1.27;;;5.90;99.90;;;;;;5009276;28;20110;-73
2023/01/27 01:35:40;;;;;;;4.32;1.08;;;5.90;99.90;;;;;;5009032;28;20040;-73
2023/01/27 01:38:05;;;;;;;6.35;1.55;;;5.90;99.90;;;;;;5009640;28;20045;-72
2023/01/27 01:40:32;;;;;;;5.38;1.08;;;5.80;99.90;;;;;;5008580;28;20103;-73
2023/01/27 01:43:00;;;;;;;5.15;1.52;;;5.80;99.90;;;;;;5009522;28;20417;-71
2023/01/27 01:45:35;;;;;;;5.15;1.75;;;5.80;99.90;;;;;;5007757;28;20041;-73
2023/01/27 01:48:12;;;;;;;3.35;1.33;;;5.80;99.90;;;;;;5009381;28;20096;-71
2023/01/27 01:50:41;;;;;;;6.07;1.70;;;5.80;99.90;;;;;;5004981;28;20038;-73
2023/01/27 01:53:09;;;;;;;4.70;1.63;;;5.70;99.90;;;;;;5007134;28;20037;-73
2023/01/27 01:55:39;;;;;;;7.43;2.63;;;5.70;99.90;;;;;;5010527;28;20033;-74
2023/01/27 01:58:07;;;;;;;11.02;3.38;;;5.70;99.90;;;;;;5009527;28;20064;-72
2023/01/27 02:00:32;;;;;;;14.07;2.42;;;5.80;99.90;;;;;;5006939;28;20477;-73
2023/01/27 02:02:58;;;;;;;8.40;2.05;;;5.70;99.90;;;;;;5009615;28;20118;-73
2023/01/27 02:05:28;;;;;;;7.97;1.73;;;5.70;99.90;;;;;;5007040;28;20684;-75
2023/01/27 02:08:14;;;;;;;3.75;1.05;;;5.60;99.90;;;;;;5009055;28;20410;-75
2023/01/27 02:10:40;;;;;;;6.32;1.88;;;5.70;99.90;;;;;;5007041;28;20029;-73
2023/01/27 02:13:05;;;;;;;6.00;1.55;;;5.70;99.90;;;;;;5009243;28;20517;-73
2023/01/27 02:15:31;;;;;;;7.43;2.88;;;5.70;99.90;;;;;;5006414;28;20121;-72
2023/01/27 02:17:59;;;;;;;5.13;1.70;;;5.60;99.90;;;;;;5000176;28;20064;-73
2023/01/27 02:20:43;;;;;;;12.88;2.38;;;5.70;99.90;;;;;;5004618;28;20513;-74
2023/01/27 02:23:34;;;;;;;6.32;2.45;;;5.60;99.90;;;;;;5008009;28;20030;-76
2023/01/27 02:26:24;;;;;;;8.35;1.70;;;5.70;99.90;;;;;;5010398;28;20029;-72
2023/01/27 02:28:55;;;;;;;5.75;1.88;;;5.70;99.90;;;;;;4984699;28;20026;-73
2023/01/27 02:31:20;;;;;;;8.85;3.45;;;5.60;99.90;;;;;;4987749;28;20104;-73
2023/01/27 02:33:46;;;;;;;8.65;2.08;;;5.70;99.90;;;;;;4988646;28;20117;-72
2023/01/27 02:36:15;;;;;;;5.65;2.20;;;5.70;99.90;;;;;;4988752;28;20113;-73
2023/01/27 02:38:48;;;;;;;4.95;2.05;;;5.70;99.90;;;;;;4986790;28;20054;-73
2023/01/27 02:41:19;;;;;;;8.05;1.52;;;5.70;99.90;;;;;;4983793;28;20394;-72
2023/01/27 02:43:47;;;;;;;6.40;2.30;;;5.60;99.90;;;;;;4988173;28;20042;-74
2023/01/27 02:46:12;;;;;;;9.07;1.90;;;5.70;99.90;;;;;;4986757;28;20045;-73
2023/01/27 02:48:38;;;;;;;8.50;2.72;;;5.70;99.90;;;;;;4985912;28;20402;-73
2023/01/27 02:51:03;;;;;;;6.75;2.15;;;5.70;99.90;;;;;;4983266;28;20047;-72
2023/01/27 02:53:29;;;;;;;8.32;2.60;;;5.70;99.90;;;;;;4980832;28;20045;-72
2023/01/27 02:55:54;;;;;;;7.85;2.15;;;5.60;99.90;;;;;;4984963;28;20030;-74
2023/01/27 02:58:20;;;;;;;6.00;3.00;;;5.60;99.90;;;;;;4988019;28;20041;-74
2023/01/27 03:00:46;;;;;;;5.53;2.45;;;5.60;99.90;;;;;;4987010;28;20042;-74
2023/01/27 03:03:11;;;;;;;8.30;3.10;;;5.60;99.90;;;;;;4987359;28;20035;-73
2023/01/27 03:05:37;;;;;;;7.85;2.92;;;5.50;99.90;;;;;;4989270;28;20505;-74
2023/01/27 03:08:02;;;;;;;11.98;2.72;;;5.50;99.90;;;;;;4987406;28;20030;-74
2023/01/27 03:10:28;;;;;;;9.15;4.40;;;5.50;99.90;;;;;;4987682;28;20049;-73
2023/01/27 03:12:54;;;;;;;13.95;4.68;;;5.40;99.90;;;;;;4986665;28;20034;-74
2023/01/27 03:18:15;;;;;;;14.60;4.32;;;5.40;99.90;;;;;;4988502;28;20049;-74
2023/01/27 03:20:46;;;;;;;11.20;3.95;;;5.30;99.90;;;;;;4984076;28;20034;-74
2023/01/27 03:23:13;;;;;;;10.25;4.15;;;5.30;99.90;;;;;;4984492;28;20057;-73
2023/01/27 03:25:46;;;;;;;11.75;3.97;;;5.20;99.90;;;;;;4986508;28;20027;-74
2023/01/27 03:28:13;;;;;;;14.57;3.95;;;5.20;99.90;;;;;;5001469;28;20489;-73
2023/01/27 03:30:39;;;;;;;7.38;3.63;;;5.20;99.90;;;;;;4988270;28;20026;-74
2023/01/27 03:33:06;;;;;;;12.05;4.07;;;5.20;99.90;;;;;;4986877;28;20182;-72
2023/01/27 03:35:38;;;;;;;12.20;3.65;;;5.20;99.90;;;;;;4986030;28;20031;-74
2023/01/27 03:46:23;;;;;;;9.43;3.65;;;5.10;99.90;;;;;;4986007;28;20042;-74
2023/01/27 03:48:51;;;;;;;9.65;3.22;;;5.00;99.90;;;;;;4987916;28;20034;-75
2023/01/27 03:51:19;;;;;;;10.32;3.72;;;5.10;99.90;;;;;;4986327;28;20588;-74
2023/01/27 03:53:45;;;;;;;6.75;3.25;;;5.00;99.90;;;;;;4987448;28;20031;-74
2023/01/27 03:56:11;;;;;;;7.35;2.90;;;5.00;99.90;;;;;;4988151;28;20037;-75
2023/01/27 03:58:37;;;;;;;8.77;3.47;;;5.00;99.90;;;;;;4987398;28;20504;-74
2023/01/27 04:01:15;;;;;;;8.85;3.22;;;5.00;99.90;;;;;;4986659;28;20030;-74
2023/01/27 04:09:18;;;;;;;8.93;3.33;;;5.00;99.90;;;;;;4988401;28;20073;-74
2023/01/27 04:11:59;;;;;;;8.00;3.47;;;5.00;99.90;;;;;;4992239;28;20030;-73
2023/01/27 04:14:27;;;;;;;7.15;3.15;;;5.00;99.90;;;;;;5006990;28;20474;-75
2023/01/27 04:16:55;;;;;;;5.22;2.85;;;5.00;99.90;;;;;;4991950;28;20043;-74
2023/01/27 04:19:21;;;;;;;8.32;3.05;;;5.00;99.90;;;;;;4992035;28;20111;-74
2023/01/27 04:21:47;;;;;;;4.75;2.50;;;5.00;99.90;;;;;;4992580;28;20038;-74
2023/01/27 04:24:21;;;;;;;4.30;2.25;;;5.00;99.90;;;;;;4992744;28;20402;-74
2023/01/27 04:26:48;;;;;;;7.63;2.70;;;5.00;99.90;;;;;;4993278;28;20835;-74
2023/01/27 04:29:14;;;;;;;3.20;1.85;;;5.00;99.90;;;;;;4994935;28;20402;-74
2023/01/27 04:31:40;;;;;;;5.63;2.05;;;5.00;99.90;;;;;;4993282;28;20031;-75
2023/01/27 04:34:06;;;;;;;4.15;2.17;;;5.00;99.90;;;;;;4994892;28;20042;-74
2023/01/27 04:36:32;;;;;;;7.72;2.10;;;5.00;99.90;;;;;;4992311;28;20037;-73
2023/01/27 04:38:57;;;;;;;3.45;1.77;;;5.00;99.90;;;;;;4994405;28;20098;-74
2023/01/27 04:41:23;;;;;;;3.28;1.83;;;5.00;99.90;;;;;;4992519;28;20499;-74
2023/01/27 04:43:49;;;;;;;4.20;1.58;;;5.10;99.90;;;;;;4989173;28;20053;-72
2023/01/27 04:46:14;;;;;;;2.95;1.40;;;5.00;99.90;;;;;;4990868;28;20403;-73
2023/01/27 04:48:40;;;;;;;3.45;1.50;;;5.00;99.90;;;;;;4990333;28;20046;-73
2023/01/27 04:51:05;;;;;;;2.90;1.27;;;5.10;99.90;;;;;;4991679;28;20041;-73
2023/01/27 04:53:31;;;;;;;2.97;1.30;;;5.20;99.90;;;;;;4988483;28;20038;-73
2023/01/27 04:56:03;;;;;;;3.13;1.23;;;5.10;99.90;;;;;;4989648;28;20061;-73
2023/01/27 04:58:28;;;;;;;2.28;1.27;;;5.20;99.90;;;;;;4988677;28;20117;-73
2023/01/27 05:00:54;;;;;;;5.60;1.40;;;5.10;99.90;;;;;;4989534;28;20109;-73
2023/01/27 05:03:19;;;;;;;3.17;1.23;;;5.20;99.90;;;;;;4987027;28;20042;-72
2023/01/27 05:05:45;;;;;;;2.75;1.02;;;5.20;99.90;;;;;;4990578;28;20026;-73
2023/01/27 05:08:11;;;;;;;2.60;1.10;;;5.20;99.90;;;;;;4988852;28;20026;-74
2023/01/27 05:10:36;;;;;;;2.72;0.73;;;5.20;99.90;;;;;;4989229;28;20034;-72
2023/01/27 05:13:02;;;;;;;2.17;0.93;;;5.30;99.90;;;;;;4988283;28;20026;-73
2023/01/27 05:15:29;;;;;;;2.05;1.10;;;5.20;99.90;;;;;;4988042;28;20040;-70
2023/01/27 05:17:54;;;;;;;1.80;0.80;;;5.30;99.90;;;;;;4990648;28;20042;-73
2023/01/27 05:20:20;;;;;;;5.10;1.17;;;5.20;99.90;;;;;;4990307;28;20034;-72
2023/01/27 05:22:46;;;;;;;1.65;0.80;;;5.20;99.90;;;;;;4988840;28;20037;-73
2023/01/27 05:25:12;;;;;;;2.38;1.20;;;5.30;99.90;;;;;;4990201;28;20038;-73
2023/01/27 05:27:38;;;;;;;4.63;1.17;;;5.20;99.90;;;;;;4989965;28;20058;-72
2023/01/27 05:30:04;;;;;;;1.35;0.77;;;5.30;99.90;;;;;;4990732;28;20034;-72
2023/01/27 05:32:29;;;;;;;2.13;1.08;;;5.30;99.90;;;;;;4987837;28;20050;-72
2023/01/27 05:34:55;;;;;;;5.25;1.60;;;5.30;99.90;;;;;;4988583;28;20502;-73
2023/01/27 05:37:20;;;;;;;2.50;1.13;;;5.30;99.90;;;;;;4990128;28;20069;-72
2023/01/27 05:39:46;;;;;;;1.52;1.10;;;5.30;99.90;;;;;;4989639;28;20165;-74
2023/01/27 05:42:12;;;;;;;1.77;0.82;;;5.30;99.90;;;;;;4989971;28;20403;-73
2023/01/27 05:44:37;;;;;;;6.80;1.27;;;5.30;99.90;;;;;;4988019;28;20054;-72
2023/01/27 05:47:03;;;;;;;2.33;0.70;;;5.30;99.90;;;;;;4989569;28;20034;-73
2023/01/27 05:49:28;;;;;;;3.13;0.80;;;5.30;99.90;;;;;;4982701;28;20038;-71
2023/01/27 05:51:54;;;;;;;1.48;0.60;;;5.30;99.90;;;;;;4989489;28;20035;-72
2023/01/27 05:54:19;;;;;;;1.23;0.73;;;5.30;99.90;;;;;;4986292;28;20049;-72
2023/01/27 05:56:45;;;;;;;1.58;0.88;;;5.30;99.90;;;;;;4987897;28;20031;-72
2023/01/27 05:59:11;;;;;;;1.50;0.93;;;5.30;99.90;;;;;;4988588;28;20490;-72
2023/01/27 06:01:37;;;;;;;1.98;0.98;;;5.30;99.90;;;;;;4987332;28;20043;-74
2023/01/27 06:04:03;;;;;;;2.67;0.80;;;5.30;99.90;;;;;;4988174;28;20054;-73
2023/01/27 06:06:30;;;;;;;4.40;1.15;;;5.20;99.90;;;;;;4987505;28;20049;-73
2023/01/27 06:08:56;;;;;;;2.08;0.93;;;5.30;99.90;;;;;;4988515;28;20049;-74
2023/01/27 06:11:23;;;;;;;1.27;0.90;;;5.30;99.90;;;;;;4989430;28;20038;-73
2023/01/27 06:13:50;;;;;;;2.72;1.25;;;5.30;99.90;;;;;;4989208;28;20038;-74
2023/01/27 06:16:17;;;;;;;1.70;0.88;;;5.30;99.90;;;;;;4987645;28;20768;-74
2023/01/27 06:18:43;;;;;;;2.22;0.80;;;5.30;99.90;;;;;;4987948;28;20105;-74
2023/01/27 06:21:11;;;;;;;3.10;0.85;;;5.30;99.90;;;;;;4988151;28;20626;-73
2023/01/27 06:23:38;;;;;;;3.13;0.98;;;5.30;99.90;;;;;;4988529;28;20108;-73
2023/01/27 06:26:09;;;;;;;2.45;0.93;;;5.20;99.90;;;;;;4988698;28;20113;-73
2023/01/27 06:28:38;;;;;;;1.30;0.60;;;5.20;99.90;;;;;;4988167;28;20034;-72
2023/01/27 06:31:11;;;;;;;1.65;0.73;;;5.30;99.90;;;;;;4988041;28;20041;-73
2023/01/27 06:33:36;;;;;;;1.33;0.90;;;5.20;99.90;;;;;;4988227;28;20429;-73
2023/01/27 06:36:05;;;;;;;3.47;1.90;;;5.20;99.90;;;;;;4987851;28;20026;-73
2023/01/27 06:38:31;;;;;;;0.93;0.60;;;5.20;99.90;;;;;;4988244;28;20398;-73
2023/01/27 06:41:03;;;;;;;0.90;0.50;;;5.20;99.90;;;;;;4989092;28;20031;-73
2023/01/27 06:43:28;;;;;;;0.80;0.60;;;5.20;99.90;;;;;;4984129;28;20129;-72
2023/01/27 06:45:56;;;;;;;1.48;0.85;;;5.20;99.90;;;;;;4989186;28;20157;-72
2023/01/27 06:48:22;;;;;;;0.75;0.30;;;5.10;99.90;;;;;;4988844;28;20038;-73
2023/01/27 06:50:48;;;;;;;0.63;0.45;;;5.10;99.90;;;;;;4987505;28;20034;-73
2023/01/27 06:53:13;;;;;;;1.08;0.70;;;5.10;99.90;;;;;;4986929;28;20685;-73
2023/01/27 06:55:40;;;;;;;1.65;0.90;;;5.10;99.90;;;;;;4987796;28;20490;-73
2023/01/27 06:58:10;;;;;;;1.25;0.60;;;5.10;99.90;;;;;;4988709;28;20046;-73
2023/01/27 07:00:37;;;;;;;2.67;1.30;;;5.10;99.90;;;;;;4987480;28;20058;-72
2023/01/27 07:03:03;;;;;;;1.63;0.55;;;5.10;99.90;;;;;;4986755;28;20510;-74
2023/01/27 07:05:29;;;;;;;4.18;0.70;;;5.00;99.90;;;;;;4986262;28;20048;-74
2023/01/27 07:07:55;;;;;;;2.65;0.60;;;5.00;99.90;;;;;;4988755;28;20100;-73
2023/01/27 07:10:20;;;;;;;4.30;0.85;;;5.10;99.90;;;;;;4986336;28;20506;-72
2023/01/27 07:12:46;;;;;;;1.10;0.70;;;5.10;99.90;;;;;;4985842;28;20038;-73
2023/01/27 07:15:12;;;;;;;1.52;0.68;;;5.00;99.90;;;;;;4988021;28;20402;-73
2023/01/27 07:17:38;;;;;;;0.90;0.50;;;5.10;99.90;;;;;;4987999;28;20069;-73
2023/01/27 07:20:06;;;;;;;4.32;0.80;;;5.10;99.90;;;;;;4984178;28;20770;-72
2023/01/27 07:22:31;;;;;;;1.10;0.90;;;5.00;99.90;;;;;;4995906;28;20439;-73
2023/01/27 07:24:57;;;;;;;2.25;0.90;;;5.00;99.90;;;;;;5000611;28;20083;-72
2023/01/27 07:27:23;;;;;;;1.75;0.82;;;5.10;99.90;;;;;;4997940;28;20091;-73
2023/01/27 07:29:49;;;;;;;2.85;0.90;;;5.00;99.90;;;;;;4997259;28;20499;-74
2023/01/27 07:32:15;;;;;;;1.08;0.60;;;5.00;99.90;;;;;;4998502;28;20511;-72
2023/01/27 07:34:41;;;;;;;0.68;0.43;;;4.90;99.90;;;;;;4999875;28;20042;-73
2023/01/27 07:37:06;;;;;;;2.22;1.00;;;5.00;99.90;;;;;;5001905;28;20188;-72
2023/01/27 07:39:33;;;;;;;3.35;1.13;;;5.00;99.90;;;;;;4999499;28;20073;-73
2023/01/27 07:42:00;;;;;;;0.98;0.50;;;5.00;99.90;;;;;;5003333;28;20026;-72
2023/01/27 07:44:26;;;;;;;3.05;1.10;;;5.00;99.90;;;;;;5006896;28;20386;-73
2023/01/27 07:46:52;;;;;;;3.00;0.88;;;4.90;99.90;;;;;;5007371;28;20037;-72
2023/01/27 07:49:18;;;;;;;0.70;0.50;;;4.90;99.90;;;;;;5007315;28;20056;-74
2023/01/27 07:51:43;;;;;;;1.85;0.40;;;4.90;99.90;;;;;;5005602;28;20038;-70
2023/01/27 07:54:09;;;;;;;4.32;0.70;;;4.90;99.90;;;;;;5003739;28;20033;-72
2023/01/27 07:56:35;;;;;;;9.18;1.13;;;4.90;99.90;;;;;;5006729;28;20026;-72
2023/01/27 07:59:01;;;;;;;1.33;0.50;;;4.90;99.90;;;;;;5007987;28;20052;-71
2023/01/27 08:01:26;;;;;;;9.82;1.23;;;4.90;99.90;;;;;;5002632;28;20077;-73
2023/01/27 08:03:52;;;;;;;2.25;0.47;;;4.90;99.90;;;;;;5006439;28;20061;-71
2023/01/27 08:06:18;;;;;;;2.25;0.50;;;5.00;99.90;;;;;;5006013;28;20022;-71
2023/01/27 08:08:43;;;;;;;3.15;0.70;;;4.90;99.90;;;;;;5004513;28;20049;-71
2023/01/27 08:11:12;;;;;;;1.23;0.77;;;4.90;99.90;;;;;;5004293;28;20026;-71
2023/01/27 08:13:37;;;;;;;2.90;0.60;;;4.90;99.90;;;;;;5000153;28;20100;-71
2023/01/27 08:16:05;;;;;;;2.00;0.90;;;4.90;99.90;;;;;;4998244;28;20491;-73
2023/01/27 08:18:32;;;;;;;1.90;0.70;;;4.90;99.90;;;;;;5005129;28;20048;-71
2023/01/27 08:21:04;;;;;;;1.40;0.77;;;5.00;99.90;;;;;;5004354;28;20552;-71
2023/01/27 08:23:30;;;;;;;4.93;0.60;;;5.00;99.90;;;;;;5004021;28;20049;-70
2023/01/27 08:25:58;;;;;;;1.52;0.50;;;5.00;99.90;;;;;;5001977;28;20057;-72
2023/01/27 08:28:25;;;;;;;1.08;0.60;;;5.00;99.90;;;;;;4994334;28;20495;-71
2023/01/27 08:30:51;;;;;;;0.80;0.43;;;5.00;99.90;;;;;;5000914;28;20026;-72
2023/01/27 08:33:18;;;;;;;1.48;0.73;;;5.00;99.90;;;;;;5002585;28;20037;-72
2023/01/27 08:35:44;;;;;;;1.13;0.60;;;5.10;99.90;;;;;;5004448;28;20034;-70
2023/01/27 08:38:11;;;;;;;1.50;0.60;;;5.10;99.90;;;;;;5005415;28;20030;-71
2023/01/27 08:40:38;;;;;;;2.05;0.80;;;5.00;99.90;;;;;;5001516;28;20616;-72
2023/01/27 08:43:04;;;;;;;0.52;0.38;;;5.00;99.90;;;;;;5004639;28;20045;-74
2023/01/27 08:45:29;;;;;;;1.33;0.60;;;4.80;99.90;;;;;;5003606;28;20044;-69
2023/01/27 08:47:55;;;;;;;1.10;0.50;;;4.80;99.90;;;;;;5005853;28;20038;-75
2023/01/27 08:50:20;;;;;;;1.50;0.57;;;4.80;99.90;;;;;;5005561;28;20045;-71
2023/01/27 08:52:46;;;;;;;3.00;0.90;;;4.80;99.90;;;;;;5006481;28;20030;-72
2023/01/27 08:55:12;;;;;;;1.98;0.35;;;4.80;99.90;;;;;;5005700;28;20034;-73
2023/01/27 08:57:37;;;;;;;2.47;0.80;;;4.80;99.90;;;;;;5009484;28;20077;-73
2023/01/27 09:00:05;;;;;;;1.13;0.40;;;4.80;99.90;;;;;;5002258;28;20095;-73
2023/01/27 09:02:31;;;;;;;1.83;0.63;;;4.80;99.90;;;;;;5004463;28;20478;-73
2023/01/27 09:04:57;;;;;;;0.80;0.50;;;4.90;99.90;;;;;;4998168;28;20410;-75
2023/01/27 09:07:22;;;;;;;3.15;0.47;;;5.00;99.90;;;;;;5008642;28;20045;-75
2023/01/27 09:09:48;;;;;;;0.70;0.40;;;5.00;99.90;;;;;;5009486;28;20037;-73
2023/01/27 09:12:14;;;;;;;2.85;0.57;;;5.00;99.90;;;;;;5008298;28;20041;-73
2023/01/27 09:14:40;;;;;;;0.73;0.40;;;5.10;99.90;;;;;;5008969;28;20521;-73
2023/01/27 09:17:05;;;;;;;2.13;0.30;;;5.10;99.90;;;;;;5011566;28;20022;-71
2023/01/27 09:19:31;;;;;;;8.95;1.05;;;5.10;99.90;;;;;;5011332;28;20119;-72
2023/01/27 09:21:57;;;;;;;4.07;0.35;;;5.20;99.90;;;;;;5010645;28;20101;-73
2023/01/27 09:24:22;;;;;;;6.57;0.50;;;5.20;99.90;;;;;;5011297;28;20034;-73
2023/01/27 09:26:48;;;;;;;1.88;0.40;;;5.30;99.90;;;;;;5009955;28;20033;-75
2023/01/27 09:29:14;;;;;;;6.70;1.27;;;5.30;99.90;;;;;;5009312;28;20495;-71
2023/01/27 09:31:40;;;;;;;2.47;0.40;;;5.40;99.90;;;;;;5012699;28;20041;-74
2023/01/27 09:34:05;;;;;;;1.02;0.32;;;5.40;99.90;;;;;;5008082;28;20041;-74
2023/01/27 09:36:35;;;;;;;2.92;0.60;;;5.40;99.90;;;;;;5007653;28;20100;-72
2023/01/27 09:39:06;;;;;;;4.15;0.60;;;5.40;99.90;;;;;;5012245;28;20045;-73
2023/01/27 09:41:54;;;;;;;4.55;0.73;;;5.50;99.90;;;;;;5008893;28;22759;-74
2023/01/27 09:44:51;;;;;;;2.50;0.45;;;5.50;99.90;;;;;;5020570;28;20048;-73
2023/01/27 09:47:31;;;;;;;1.55;0.50;;;5.50;99.90;;;;;;5005484;28;20049;-73
2023/01/27 09:50:20;;;;;;;1.52;0.30;;;5.50;99.90;;;;;;4994943;28;20402;-73
2023/01/27 09:53:11;;;;;;;2.28;0.30;;;5.60;99.90;;;;;;5005137;28;20101;-73
2023/01/27 09:55:39;;;;;;;1.50;0.40;;;5.70;99.90;;;;;;5008732;28;20049;-73
2023/01/27 09:58:11;;;;;;;0.73;0.30;;;5.60;99.90;;;;;;5009523;28;20041;-73
2023/01/27 10:00:57;;;;;;;2.80;0.35;;;5.80;99.90;;;;;;5007127;28;20080;-74
2023/01/27 10:03:46;;;;;;;1.20;0.20;;;5.70;99.90;;;;;;5004712;28;20034;-74
2023/01/27 10:06:41;;;;;;;1.23;0.45;;;5.80;99.90;;;;;;5002586;28;20034;-75
2023/01/27 10:09:43;;;;;;;5.60;0.82;;;5.80;99.90;;;;;;4990052;28;20034;-73
2023/01/27 10:12:21;;;;;;;2.22;0.40;;;5.80;99.90;;;;;;5016553;28;20656;-74
2023/01/27 10:14:52;;;;;;;4.38;0.28;;;5.90;99.90;;;;;;4984097;28;20039;-73
2023/01/27 10:17:51;;;;;;;0.75;0.22;;;5.90;99.90;;;;;;4978253;28;20033;-72
2023/01/27 10:20:38;;;;;;;1.00;0.35;;;5.90;99.90;;;;;;4974163;28;20038;-72
2023/01/27 10:23:16;;;;;;;3.97;0.60;;;6.00;99.90;;;;;;4978114;28;20503;-73
2023/01/27 10:26:08;;;;;;;6.03;1.05;;;6.00;99.90;;;;;;4980667;28;20037;-74
2023/01/27 10:28:35;;;;;;;0.47;0.20;;;6.00;99.90;;;;;;4984217;28;20097;-76
2023/01/27 10:31:33;;;;;;;1.00;0.50;;;6.00;99.90;;;;;;4990403;28;20120;-73
2023/01/27 10:34:11;;;;;;;1.02;0.57;;;6.10;99.90;;;;;;5007631;28;20065;-74
2023/01/27 10:36:48;;;;;;;1.35;0.30;;;6.00;99.90;;;;;;5007317;28;20041;-74
2023/01/27 10:39:28;;;;;;;3.00;0.80;;;6.00;99.90;;;;;;5021513;28;20045;-74
2023/01/27 10:42:13;;;;;;;0.52;0.38;;;5.90;99.90;;;;;;5005451;28;20044;-74
2023/01/27 10:44:55;;;;;;;2.72;0.60;;;6.00;99.90;;;;;;4999894;28;20082;-74
2023/01/27 10:47:40;;;;;;;1.02;0.50;;;5.90;99.90;;;;;;5006422;28;20049;-73
2023/01/27 10:50:12;;;;;;;2.15;0.60;;;6.00;99.90;;;;;;5003637;28;20477;-73
2023/01/27 10:52:45;;;;;;;1.33;0.40;;;6.00;99.90;;;;;;5002603;28;20048;-73
2023/01/27 10:55:20;;;;;;;0.85;0.30;;;6.10;99.90;;;;;;5019892;28;20502;-73
2023/01/27 10:58:05;;;;;;;8.98;1.50;;;6.20;99.90;;;;;;5004077;28;20042;-73
2023/01/27 11:00:40;;;;;;;2.85;0.40;;;6.20;99.90;;;;;;5003481;28;20434;-74
2023/01/27 11:03:20;;;;;;;1.55;0.60;;;6.20;99.90;;;;;;5003760;28;20544;-75
2023/01/27 11:05:54;;;;;;;1.67;0.40;;;6.20;99.90;;;;;;5003501;28;20110;-74
2023/01/27 11:08:27;;;;;;;2.28;0.68;;;6.20;99.90;;;;;;5006065;28;20105;-72
2023/01/27 11:13:45;;;;;;;2.13;0.70;;;6.10;99.90;;;;;;5003144;28;20033;-73
2023/01/27 11:16:15;;;;;;;3.22;0.63;;;6.10;99.90;;;;;;5008170;28;20037;-74
2023/01/27 11:18:45;;;;;;;2.60;0.60;;;6.00;99.90;;;;;;5003351;28;20037;-74
2023/01/27 11:21:27;;;;;;;1.17;0.80;;;6.00;99.90;;;;;;5008595;28;20026;-74
2023/01/27 11:23:55;;;;;;;2.78;0.60;;;5.90;99.90;;;;;;4999580;28;20454;-73
2023/01/27 11:26:41;;;;;;;2.65;0.50;;;6.00;99.90;;;;;;5008364;28;20495;-74
2023/01/27 11:29:31;;;;;;;1.27;0.50;;;6.00;99.90;;;;;;5006842;28;20042;-72
2023/01/27 11:32:15;;;;;;;3.22;0.52;;;6.00;99.90;;;;;;5002432;28;20045;-73
2023/01/27 11:34:58;;;;;;;2.55;0.70;;;6.00;99.90;;;;;;4994478;28;20060;-74
2023/01/27 11:37:37;;;;;;;0.90;0.40;;;5.90;99.90;;;;;;5006626;28;20030;-73
2023/01/27 11:40:03;;;;;;;1.98;0.60;;;6.00;99.90;;;;;;5004925;28;20414;-72
2023/01/27 11:42:34;;;;;;;2.95;0.70;;;6.00;99.90;;;;;;5006101;28;20034;-75
2023/01/27 11:45:01;;;;;;;1.13;0.47;;;5.90;99.90;;;;;;5005918;28;20030;-73
2023/01/27 11:47:36;;;;;;;13.10;1.42;;;6.00;99.90;;;;;;5001416;28;20410;-74
2023/01/27 11:50:03;;;;;;;3.20;1.40;;;5.90;99.90;;;;;;5005786;28;20411;-73
2023/01/27 11:52:30;;;;;;;1.88;0.63;;;6.00;99.90;;;;;;5003295;28;20046;-73
2023/01/27 11:55:14;;;;;;;1.00;0.70;;;6.00;99.90;;;;;;4997618;28;20030;-74
2023/01/27 11:57:49;;;;;;;5.13;1.17;;;6.00;99.90;;;;;;4983661;28;20048;-73
2023/01/27 12:00:30;;;;;;;2.33;0.85;;;5.90;99.90;;;;;;5004610;28;20046;-74
2023/01/27 12:03:04;;;;;;;2.13;0.63;;;6.00;99.90;;;;;;5004472;28;20082;-74
2023/01/27 12:05:33;;;;;;;1.73;0.65;;;6.10;99.90;;;;;;5004163;28;20034;-74
2023/01/27 12:08:03;;;;;;;1.67;0.75;;;6.10;99.90;;;;;;5006463;28;20033;-73
2023/01/27 12:10:32;;;;;;;1.30;0.73;;;6.00;99.90;;;;;;5006118;28;20129;-73
2023/01/27 12:13:13;;;;;;;2.53;0.82;;;6.10;99.90;;;;;;5004553;28;20034;-73
2023/01/27 12:15:46;;;;;;;;;;;6.00;99.90;;;;;;5002244;28;20038;-73
2023/01/27 12:18:14;;;;;;;1.38;0.70;;;6.00;99.90;;;;;;5003521;28;19935;-75
2023/01/27 12:20:43;;;;;;;1.50;0.90;;;6.10;99.90;;;;;;5006006;28;20084;-73
2023/01/27 12:23:17;;;;;;;1.50;0.85;;;5.90;99.90;;;;;;5007590;28;20034;-76
2023/01/27 12:25:47;;;;;;;0.90;0.63;;;5.90;99.90;;;;;;5005771;28;20030;-75
2023/01/27 12:28:23;;;;;;;0.90;0.50;;;5.90;99.90;;;;;;5000681;28;20708;-73
2023/01/27 12:30:51;;;;;;;2.38;0.80;;;5.90;99.90;;;;;;4999328;28;20038;-75
2023/01/27 12:33:31;;;;;;;1.77;0.70;;;5.90;99.90;;;;;;5007553;28;20044;-74
2023/01/27 12:36:00;;;;;;;2.08;0.80;;;5.80;99.90;;;;;;5013498;28;20030;-74
2023/01/27 12:38:30;;;;;;;1.10;0.70;;;5.90;99.90;;;;;;5010497;28;20117;-73
2023/01/27 12:41:06;;;;;;;1.80;0.70;;;5.90;99.90;;;;;;5011081;28;20049;-75
2023/01/27 12:44:01;;;;;;;1.63;0.50;;;5.90;99.90;;;;;;5014835;28;20077;-73
2023/01/27 12:46:30;;;;;;;1.40;0.50;;;6.00;99.90;;;;;;5012900;28;20038;-77
2023/01/27 12:49:07;;;;;;;2.90;0.80;;;6.00;99.90;;;;;;5013501;28;20477;-76
2023/01/27 12:51:47;;;;;;;1.83;0.63;;;6.10;99.90;;;;;;5013557;28;20104;-75
2023/01/27 12:54:26;;;;;;;0.75;0.60;;;6.20;99.90;;;;;;5013479;28;20165;-74
2023/01/27 12:56:53;;;;;;;0.65;0.47;;;6.20;99.90;;;;;;5015475;28;20569;-75
2023/01/27 12:59:22;;;;;;;6.43;0.70;;;6.30;99.90;;;;;;5014655;28;20030;-76
2023/01/27 13:02:00;;;;;;;1.55;0.80;;;6.20;99.90;;;;;;5014713;28;20580;-77
2023/01/27 13:04:27;;;;;;;1.58;0.70;;;6.30;99.90;;;;;;5014564;28;20129;-75
2023/01/27 13:07:06;;;;;;;1.50;0.90;;;6.30;99.90;;;;;;5013415;28;20041;-73
2023/01/27 13:09:45;;;;;;;3.55;0.70;;;6.30;99.90;;;;;;5014242;28;20042;-74
2023/01/27 13:12:34;;;;;;;3.17;1.00;;;6.10;99.90;;;;;;5016646;28;20112;-74
2023/01/27 13:15:15;;;;;;;2.25;0.65;;;6.10;99.90;;;;;;5015113;28;20041;-75
2023/01/27 13:17:44;;;;;;;3.08;0.50;;;6.10;99.90;;;;;;5013510;28;20052;-75
2023/01/27 13:20:30;;;;;;;0.93;0.40;;;6.10;99.90;;;;;;5016703;28;20141;-76
2023/01/27 13:23:04;;;;;;;4.93;1.15;;;6.10;99.90;;;;;;5014281;28;20033;-76
2023/01/27 13:25:37;;;;;;;1.50;0.73;;;6.10;99.90;;;;;;5014000;28;20108;-76
2023/01/27 13:28:05;;;;;;;2.05;1.00;;;6.10;99.90;;;;;;5018091;28;20026;-73
2023/01/27 13:30:41;;;;;;;1.08;0.55;;;6.10;99.90;;;;;;5006494;28;20038;-75
2023/01/27 13:33:39;;;;;;;3.22;1.08;;;6.00;99.90;;;;;;4998342;28;20141;-73
2023/01/27 13:36:44;;;;;;;0.73;0.50;;;6.00;99.90;;;;;;4999547;28;20399;-73
2023/01/27 13:39:13;;;;;;;1.67;0.40;;;5.90;99.90;;;;;;4995820;28;20045;-73
2023/01/27 13:41:46;;;;;;;1.25;0.50;;;6.00;99.90;;;;;;4999149;28;20092;-73
2023/01/27 13:44:27;;;;;;;1.63;0.57;;;5.90;99.90;;;;;;5009943;28;20502;-74